Terminal Aerodrome Forecast
Issued by NWS Wilmington, OH

Current Version | Previous Version | Graphics & Text | Print | Product List | Glossary On
Versions: 1 2 3 4 5 6 7 8 9 10 11 12 13 14 15 16 17 18 19 20 21 22 23 24 25 26 27 28
000
FTUS41 KILN 210200 AAA
TAFCMH
TAF AMD
KCMH 210244Z 2103/2124 21008KT P6SM VCSH BKN050
     FM210600 22010KT P6SM VCTS BKN050CB
      TEMPO 2107/2111 4SM -TSRA BR OVC040CB
     FM211100 23010KT P6SM VCSH OVC025
     FM211500 26014G23KT P6SM BKN035
     FM211900 29016G25KT P6SM BKN050=

USA.gov is the U.S. government's official web portal to all federal, state and local government web resources and services.